Aeroporto :







RITROVATECI SU...

 
LOGIN :

Iscrizione | Disclaimer

   EN    FR    IT 

 









Sommario :    VFR   VFR Marginale   IFR   IFR Intensivo   IFR Molto Intensivo
Visibilità : 
Base nubi : 
>= 8 km
>= 3000ft
5 / 8 km
1000 / 3000 ft
1500m / 5 km
500 / 1000 ft
800 / 1500m
200 / 500 ft
< 800m
< 200 ft
Simboli :   Temporali  Nebbia  Neve Forte  Precipitazioni Forti  Vento > 20 kt






- Altitudine del aeroporto : 20 ft
- Codice IATA : BON


TNCB - Flamingo

ULTIMO METAR :
  • 011355Z 11015KT 080V160 9999 SCT018 30/24 Q1013

METARs OBSOLETI :
  • 011255Z AUTO 11016KT 080V140 9999 // ///////// 29/25 Q1012 RE//
  • 011155Z AUTO 11013KT 070V140 9999 // NCD 29/24 Q1012 RE//

TAF TAF TNCB
Valido dal 01 a 12 ore il 02 a 18 ore UTC


011109Z 0112/0218 09012KT 9999 SCT020
PROB30
TEMPO 0206/0215 5000 SHRA SCT018CB
FIR TNCF / America del Nord



MetMap, La meteo Aeronautica in un colpo d'occhio ! - Copyright ORBIFLY Dicembre 2007 - Disclaimer

ORBIFLY MET'MAP TEAM :

Programmazione e sviluppo : Alexandra Zaïnal
Concezione : Baudouin d'Aumeries
Aiuto per la programmazione : Marc-Olivier Méhu
Supporto tecnico e logistico : Manuel Goepfert
Aiuto per la traduzione : Arnaldo La Scala

Contatto : metmap@orbifly.com




FONTI E CREDITI :

   NOAA